sensor_id;sensor_type;location;lat;lon;timestamp;pressure;altitude;pressure_sealevel;temperature;humidity
64402;BME280;50724;42.376;23.768;2024-01-30T00:00:34;94939.63;;;-3.90;100.00
64402;BME280;50724;42.376;23.768;2024-01-30T00:03:34;94939.56;;;-3.89;100.00
64402;BME280;50724;42.376;23.768;2024-01-30T00:06:35;94941.44;;;-3.94;100.00
64402;BME280;50724;42.376;23.768;2024-01-30T00:09:35;94940.47;;;-3.91;100.00
64402;BME280;50724;42.376;23.768;2024-01-30T00:12:36;94940.59;;;-3.96;100.00
64402;BME280;50724;42.376;23.768;2024-01-30T00:15:36;94950.13;;;-4.02;100.00
64402;BME280;50724;42.376;23.768;2024-01-30T00:18:37;94944.00;;;-3.95;100.00
64402;BME280;50724;42.376;23.768;2024-01-30T00:21:37;94949.25;;;-4.01;100.00
64402;BME280;50724;42.376;23.768;2024-01-30T00:24:38;94949.09;;;-3.95;100.00
64402;BME280;50724;42.376;23.768;2024-01-30T00:27:38;94947.47;;;-3.98;100.00
64402;BME280;50724;42.376;23.768;2024-01-30T00:30:38;94938.88;;;-3.94;100.00
64402;BME280;50724;42.376;23.768;2024-01-30T00:33:39;94943.81;;;-3.88;100.00
64402;BME280;50724;42.376;23.768;2024-01-30T00:36:40;94936.09;;;-3.86;100.00
64402;BME280;50724;42.376;23.768;2024-01-30T00:39:40;94929.63;;;-3.99;100.00
64402;BME280;50724;42.376;23.768;2024-01-30T00:42:44;94932.13;;;-3.98;100.00
64402;BME280;50724;42.376;23.768;2024-01-30T00:45:45;94931.00;;;-3.86;100.00
64402;BME280;50724;42.376;23.768;2024-01-30T00:48:45;94932.34;;;-3.72;100.00
64402;BME280;50724;42.376;23.768;2024-01-30T00:51:47;94935.69;;;-3.68;100.00
64402;BME280;50724;42.376;23.768;2024-01-30T00:54:48;94933.75;;;-3.60;100.00
64402;BME280;50724;42.376;23.768;2024-01-30T00:57:48;94934.84;;;-3.69;100.00
64402;BME280;50724;42.376;23.768;2024-01-30T01:00:49;94929.38;;;-3.55;100.00
64402;BME280;50724;42.376;23.768;2024-01-30T01:03:49;94925.25;;;-3.61;100.00
64402;BME280;50724;42.376;23.768;2024-01-30T01:06:50;94913.59;;;-3.71;100.00
64402;BME280;50724;42.376;23.768;2024-01-30T01:09:50;94922.06;;;-3.70;100.00
64402;BME280;50724;42.376;23.768;2024-01-30T01:12:51;94920.41;;;-3.71;100.00
64402;BME280;50724;42.376;23.768;2024-01-30T01:15:51;94924.38;;;-3.60;100.00
64402;BME280;50724;42.376;23.768;2024-01-30T01:18:52;94922.00;;;-3.67;100.00
64402;BME280;50724;42.376;23.768;2024-01-30T01:21:52;94916.25;;;-3.75;100.00
64402;BME280;50724;42.376;23.768;2024-01-30T01:24:53;94920.78;;;-3.86;100.00
64402;BME280;50724;42.376;23.768;2024-01-30T01:27:53;94920.81;;;-3.88;100.00
64402;BME280;50724;42.376;23.768;2024-01-30T01:30:54;94918.09;;;-3.80;100.00
64402;BME280;50724;42.376;23.768;2024-01-30T01:33:59;94916.28;;;-3.77;100.00
64402;BME280;50724;42.376;23.768;2024-01-30T01:37:02;94922.53;;;-3.88;100.00
64402;BME280;50724;42.376;23.768;2024-01-30T01:40:02;94923.44;;;-3.89;100.00
64402;BME280;50724;42.376;23.768;2024-01-30T01:43:03;94920.59;;;-3.79;100.00
64402;BME280;50724;42.376;23.768;2024-01-30T01:46:06;94920.25;;;-3.99;100.00
64402;BME280;50724;42.376;23.768;2024-01-30T01:49:07;94916.56;;;-3.89;100.00
64402;BME280;50724;42.376;23.768;2024-01-30T01:52:08;94919.06;;;-3.86;100.00
64402;BME280;50724;42.376;23.768;2024-01-30T01:55:21;94918.94;;;-3.81;100.00
64402;BME280;50724;42.376;23.768;2024-01-30T01:58:22;94929.97;;;-3.79;100.00
64402;BME280;50724;42.376;23.768;2024-01-30T02:01:24;94931.78;;;-3.83;100.00
64402;BME280;50724;42.376;23.768;2024-01-30T02:04:25;94940.47;;;-3.91;100.00
64402;BME280;50724;42.376;23.768;2024-01-30T02:07:34;94938.38;;;-4.09;100.00
64402;BME280;50724;42.376;23.768;2024-01-30T02:10:34;94937.03;;;-4.26;100.00
64402;BME280;50724;42.376;23.768;2024-01-30T02:13:43;94927.47;;;-4.54;100.00
64402;BME280;50724;42.376;23.768;2024-01-30T02:16:43;94937.16;;;-4.70;100.00
64402;BME280;50724;42.376;23.768;2024-01-30T02:19:44;94941.09;;;-4.95;100.00
64402;BME280;50724;42.376;23.768;2024-01-30T02:22:45;94941.06;;;-4.94;100.00
64402;BME280;50724;42.376;23.768;2024-01-30T02:25:45;94932.78;;;-5.06;100.00
64402;BME280;50724;42.376;23.768;2024-01-30T02:28:46;94934.63;;;-5.11;100.00
64402;BME280;50724;42.376;23.768;2024-01-30T02:31:46;94934.34;;;-5.42;100.00
64402;BME280;50724;42.376;23.768;2024-01-30T02:34:47;94937.97;;;-5.53;100.00
64402;BME280;50724;42.376;23.768;2024-01-30T02:37:47;94931.28;;;-5.61;100.00
64402;BME280;50724;42.376;23.768;2024-01-30T02:40:47;94928.81;;;-5.65;100.00
64402;BME280;50724;42.376;23.768;2024-01-30T02:43:48;94936.78;;;-5.36;100.00
64402;BME280;50724;42.376;23.768;2024-01-30T02:46:48;94929.00;;;-5.28;100.00
64402;BME280;50724;42.376;23.768;2024-01-30T02:49:49;94933.28;;;-5.30;100.00
64402;BME280;50724;42.376;23.768;2024-01-30T02:52:49;94933.38;;;-5.36;100.00
64402;BME280;50724;42.376;23.768;2024-01-30T02:55:50;94934.75;;;-5.20;100.00
64402;BME280;50724;42.376;23.768;2024-01-30T02:58:50;94929.25;;;-5.42;100.00
64402;BME280;50724;42.376;23.768;2024-01-30T03:01:50;94930.94;;;-5.42;100.00
64402;BME280;50724;42.376;23.768;2024-01-30T03:04:51;94928.28;;;-5.36;100.00
64402;BME280;50724;42.376;23.768;2024-01-30T03:07:51;94933.06;;;-5.20;100.00
64402;BME280;50724;42.376;23.768;2024-01-30T03:10:52;94925.31;;;-5.15;100.00
64402;BME280;50724;42.376;23.768;2024-01-30T03:13:52;94918.53;;;-5.15;100.00
64402;BME280;50724;42.376;23.768;2024-01-30T03:16:52;94920.41;;;-5.24;100.00
64402;BME280;50724;42.376;23.768;2024-01-30T03:19:53;94918.47;;;-5.12;100.00
64402;BME280;50724;42.376;23.768;2024-01-30T03:22:54;94918.47;;;-5.13;100.00
64402;BME280;50724;42.376;23.768;2024-01-30T03:25:55;94924.69;;;-4.83;100.00
64402;BME280;50724;42.376;23.768;2024-01-30T03:28:55;94923.56;;;-4.70;100.00
64402;BME280;50724;42.376;23.768;2024-01-30T03:31:56;94925.31;;;-4.72;100.00
64402;BME280;50724;42.376;23.768;2024-01-30T03:34:56;94928.09;;;-4.83;100.00
64402;BME280;50724;42.376;23.768;2024-01-30T03:37:56;94930.84;;;-4.94;100.00
64402;BME280;50724;42.376;23.768;2024-01-30T03:40:57;94928.69;;;-5.13;100.00
64402;BME280;50724;42.376;23.768;2024-01-30T03:43:58;94933.28;;;-5.32;100.00
64402;BME280;50724;42.376;23.768;2024-01-30T03:46:58;94932.59;;;-5.40;100.00
64402;BME280;50724;42.376;23.768;2024-01-30T03:49:58;94920.41;;;-5.24;100.00
64402;BME280;50724;42.376;23.768;2024-01-30T03:52:59;94929.50;;;-5.11;100.00
64402;BME280;50724;42.376;23.768;2024-01-30T03:55:59;94924.94;;;-4.96;100.00
64402;BME280;50724;42.376;23.768;2024-01-30T03:59:00;94921.44;;;-4.92;100.00
64402;BME280;50724;42.376;23.768;2024-01-30T04:02:03;94928.75;;;-4.75;100.00
64402;BME280;50724;42.376;23.768;2024-01-30T04:05:03;94921.91;;;-4.71;100.00
64402;BME280;50724;42.376;23.768;2024-01-30T04:08:04;94928.56;;;-4.64;100.00
64402;BME280;50724;42.376;23.768;2024-01-30T04:11:05;94927.34;;;-4.50;100.00
64402;BME280;50724;42.376;23.768;2024-01-30T04:14:05;94929.09;;;-4.52;100.00
64402;BME280;50724;42.376;23.768;2024-01-30T04:17:06;94927.47;;;-4.54;100.00
64402;BME280;50724;42.376;23.768;2024-01-30T04:20:07;94938.00;;;-4.69;100.00
64402;BME280;50724;42.376;23.768;2024-01-30T04:23:07;94934.38;;;-4.59;100.00
64402;BME280;50724;42.376;23.768;2024-01-30T04:26:08;94941.91;;;-4.53;100.00
64402;BME280;50724;42.376;23.768;2024-01-30T04:29:08;94942.16;;;-4.65;100.00
64402;BME280;50724;42.376;23.768;2024-01-30T04:32:09;94939.84;;;-4.76;100.00
64402;BME280;50724;42.376;23.768;2024-01-30T04:35:10;94945.16;;;-4.87;100.00
64402;BME280;50724;42.376;23.768;2024-01-30T04:38:10;94939.91;;;-4.80;100.00
64402;BME280;50724;42.376;23.768;2024-01-30T04:41:11;94944.41;;;-4.90;100.00
64402;BME280;50724;42.376;23.768;2024-01-30T04:44:11;94938.34;;;-4.86;100.00
64402;BME280;50724;42.376;23.768;2024-01-30T04:47:12;94937.75;;;-4.99;100.00
64402;BME280;50724;42.376;23.768;2024-01-30T04:50:12;94938.75;;;-5.06;100.00
64402;BME280;50724;42.376;23.768;2024-01-30T04:53:13;94938.16;;;-5.18;100.00
64402;BME280;50724;42.376;23.768;2024-01-30T04:56:13;94943.84;;;-5.04;100.00
64402;BME280;50724;42.376;23.768;2024-01-30T04:59:14;94943.78;;;-5.03;100.00
64402;BME280;50724;42.376;23.768;2024-01-30T05:02:15;94939.91;;;-4.80;100.00
64402;BME280;50724;42.376;23.768;2024-01-30T05:05:15;94948.47;;;-4.81;100.00
64402;BME280;50724;42.376;23.768;2024-01-30T05:08:16;94946.50;;;-4.69;100.00
64402;BME280;50724;42.376;23.768;2024-01-30T05:11:17;94944.31;;;-4.87;100.00
64402;BME280;50724;42.376;23.768;2024-01-30T05:14:17;94946.91;;;-4.89;100.00
64402;BME280;50724;42.376;23.768;2024-01-30T05:17:18;94949.38;;;-4.84;100.00
64402;BME280;50724;42.376;23.768;2024-01-30T05:20:27;94948.47;;;-4.81;100.00
64402;BME280;50724;42.376;23.768;2024-01-30T05:23:30;94941.41;;;-4.70;100.00
64402;BME280;50724;42.376;23.768;2024-01-30T05:26:31;94939.84;;;-4.76;100.00
64402;BME280;50724;42.376;23.768;2024-01-30T05:29:31;94945.91;;;-4.81;100.00
64402;BME280;50724;42.376;23.768;2024-01-30T05:32:31;94953.66;;;-4.86;100.00
64402;BME280;50724;42.376;23.768;2024-01-30T05:35:32;94950.22;;;-4.85;100.00
64402;BME280;50724;42.376;23.768;2024-01-30T05:38:32;94957.19;;;-4.93;100.00
64402;BME280;50724;42.376;23.768;2024-01-30T05:41:33;94955.91;;;-5.15;100.00
64402;BME280;50724;42.376;23.768;2024-01-30T05:44:33;94962.50;;;-5.02;100.00
64402;BME280;50724;42.376;23.768;2024-01-30T05:47:36;94962.03;;;-5.24;100.00
64402;BME280;50724;42.376;23.768;2024-01-30T05:50:37;94969.72;;;-5.25;100.00
64402;BME280;50724;42.376;23.768;2024-01-30T05:53:37;94972.31;;;-5.28;100.00
64402;BME280;50724;42.376;23.768;2024-01-30T05:56:38;94963.16;;;-5.38;100.00
64402;BME280;50724;42.376;23.768;2024-01-30T05:59:38;94963.59;;;-5.17;100.00
64402;BME280;50724;42.376;23.768;2024-01-30T06:02:39;94963.53;;;-5.12;100.00
64402;BME280;50724;42.376;23.768;2024-01-30T06:05:39;94958.06;;;-4.94;100.00
64402;BME280;50724;42.376;23.768;2024-01-30T06:08:40;94965.38;;;-4.76;100.00
64402;BME280;50724;42.376;23.768;2024-01-30T06:11:40;94963.28;;;-4.57;100.00
64402;BME280;50724;42.376;23.768;2024-01-30T06:14:41;94962.19;;;-4.47;100.00
64402;BME280;50724;42.376;23.768;2024-01-30T06:17:42;94964.94;;;-4.55;100.00
64402;BME280;50724;42.376;23.768;2024-01-30T06:20:43;94965.72;;;-4.53;100.00
64402;BME280;50724;42.376;23.768;2024-01-30T06:23:43;94962.56;;;-4.26;100.00
64402;BME280;50724;42.376;23.768;2024-01-30T06:26:44;94975.72;;;-4.04;100.00
64402;BME280;50724;42.376;23.768;2024-01-30T06:29:44;94975.50;;;-3.95;100.00
64402;BME280;50724;42.376;23.768;2024-01-30T06:32:45;94978.63;;;-3.82;100.00
64402;BME280;50724;42.376;23.768;2024-01-30T06:35:45;94978.41;;;-3.75;100.00
64402;BME280;50724;42.376;23.768;2024-01-30T06:38:46;94980.16;;;-3.75;100.00
64402;BME280;50724;42.376;23.768;2024-01-30T06:41:46;94977.28;;;-3.63;100.00
64402;BME280;50724;42.376;23.768;2024-01-30T06:44:47;94981.47;;;-3.59;100.00
64402;BME280;50724;42.376;23.768;2024-01-30T06:47:47;94985.28;;;-3.41;100.00
64402;BME280;50724;42.376;23.768;2024-01-30T06:50:48;94987.81;;;-3.40;100.00
64402;BME280;50724;42.376;23.768;2024-01-30T06:53:49;94981.22;;;-3.16;100.00
64402;BME280;50724;42.376;23.768;2024-01-30T06:56:50;94985.16;;;-3.03;100.00
64402;BME280;50724;42.376;23.768;2024-01-30T06:59:56;94988.19;;;-2.89;100.00
64402;BME280;50724;42.376;23.768;2024-01-30T07:02:57;94992.00;;;-2.73;97.57
64402;BME280;50724;42.376;23.768;2024-01-30T07:05:57;95000.81;;;-2.52;95.18
64402;BME280;50724;42.376;23.768;2024-01-30T07:08:58;94983.72;;;-2.52;94.02
64402;BME280;50724;42.376;23.768;2024-01-30T07:11:58;94994.50;;;-2.41;94.21
64402;BME280;50724;42.376;23.768;2024-01-30T07:14:59;94988.31;;;-2.34;92.31
64402;BME280;50724;42.376;23.768;2024-01-30T07:17:59;94987.53;;;-2.36;90.45
64402;BME280;50724;42.376;23.768;2024-01-30T07:21:00;94981.91;;;-2.48;90.59
64402;BME280;50724;42.376;23.768;2024-01-30T07:24:02;94984.69;;;-2.56;90.74
64402;BME280;50724;42.376;23.768;2024-01-30T07:27:03;94986.06;;;-2.44;88.36
64402;BME280;50724;42.376;23.768;2024-01-30T07:30:04;94983.25;;;-2.35;88.05
64402;BME280;50724;42.376;23.768;2024-01-30T07:33:04;94978.06;;;-2.34;87.43
64402;BME280;50724;42.376;23.768;2024-01-30T07:36:05;94975.63;;;-2.09;87.18
64402;BME280;50724;42.376;23.768;2024-01-30T07:39:05;94972.94;;;-2.04;85.80
64402;BME280;50724;42.376;23.768;2024-01-30T07:42:06;94979.16;;;-2.13;83.48
64402;BME280;50724;42.376;23.768;2024-01-30T07:45:07;94977.56;;;-1.88;83.23
64402;BME280;50724;42.376;23.768;2024-01-30T07:48:08;94976.34;;;-1.76;82.89
64402;BME280;50724;42.376;23.768;2024-01-30T07:51:08;94981.34;;;-1.73;83.06
64402;BME280;50724;42.376;23.768;2024-01-30T07:54:12;94978.13;;;-1.80;83.55
64402;BME280;50724;42.376;23.768;2024-01-30T07:57:13;94978.91;;;-1.76;84.29
64402;BME280;50724;42.376;23.768;2024-01-30T08:00:14;94974.50;;;-1.47;83.56
64402;BME280;50724;42.376;23.768;2024-01-30T08:03:14;94969.63;;;-1.54;81.55
64402;BME280;50724;42.376;23.768;2024-01-30T08:06:17;94973.63;;;-1.46;80.96
64402;BME280;50724;42.376;23.768;2024-01-30T08:09:17;94977.69;;;-1.38;79.10
64402;BME280;50724;42.376;23.768;2024-01-30T08:12:26;94973.75;;;-1.24;77.82
64402;BME280;50724;42.376;23.768;2024-01-30T08:15:27;94968.81;;;-1.04;76.47
64402;BME280;50724;42.376;23.768;2024-01-30T08:18:27;94968.66;;;-0.99;73.33
64402;BME280;50724;42.376;23.768;2024-01-30T08:21:27;94972.19;;;-1.28;74.23
64402;BME280;50724;42.376;23.768;2024-01-30T08:24:38;94974.19;;;-1.11;74.31
64402;BME280;50724;42.376;23.768;2024-01-30T08:27:40;94977.53;;;-1.09;72.92
64402;BME280;50724;42.376;23.768;2024-01-30T08:30:41;94976.69;;;-1.10;75.29
64402;BME280;50724;42.376;23.768;2024-01-30T08:33:41;94969.16;;;-0.90;74.74
64402;BME280;50724;42.376;23.768;2024-01-30T08:36:59;94969.41;;;-0.73;73.82
64402;BME280;50724;42.376;23.768;2024-01-30T08:40:00;94973.25;;;-0.36;72.27
64402;BME280;50724;42.376;23.768;2024-01-30T08:43:02;94975.22;;;0.02;71.27
64402;BME280;50724;42.376;23.768;2024-01-30T08:46:04;94973.03;;;0.36;70.25
64402;BME280;50724;42.376;23.768;2024-01-30T08:49:04;94982.34;;;0.60;67.67
64402;BME280;50724;42.376;23.768;2024-01-30T08:52:05;94973.03;;;0.36;67.72
64402;BME280;50724;42.376;23.768;2024-01-30T08:55:07;94981.28;;;0.23;67.59
64402;BME280;50724;42.376;23.768;2024-01-30T08:58:07;94985.38;;;-0.17;67.99
64402;BME280;50724;42.376;23.768;2024-01-30T09:01:08;94980.44;;;-0.23;68.07
64402;BME280;50724;42.376;23.768;2024-01-30T09:04:08;94978.47;;;-0.16;68.35
64402;BME280;50724;42.376;23.768;2024-01-30T09:07:09;94974.28;;;-0.19;66.64
64402;BME280;50724;42.376;23.768;2024-01-30T09:10:10;94972.16;;;-0.08;66.30
64402;BME280;50724;42.376;23.768;2024-01-30T09:13:10;94979.41;;;0.48;65.46
64402;BME280;50724;42.376;23.768;2024-01-30T09:16:11;94971.56;;;0.73;63.44
64402;BME280;50724;42.376;23.768;2024-01-30T09:19:11;94982.34;;;0.60;62.43
64402;BME280;50724;42.376;23.768;2024-01-30T09:22:12;94968.34;;;0.67;63.01
64402;BME280;50724;42.376;23.768;2024-01-30T09:25:12;94959.59;;;0.72;62.86
64402;BME280;50724;42.376;23.768;2024-01-30T09:28:13;94955.84;;;0.99;63.15
64402;BME280;50724;42.376;23.768;2024-01-30T09:31:13;94952.78;;;1.11;63.11
64402;BME280;50724;42.376;23.768;2024-01-30T09:34:14;94953.03;;;1.25;60.26
64402;BME280;50724;42.376;23.768;2024-01-30T09:37:14;94952.78;;;1.11;61.54
64402;BME280;50724;42.376;23.768;2024-01-30T09:40:17;94948.28;;;1.55;59.67
64402;BME280;50724;42.376;23.768;2024-01-30T09:43:22;94945.03;;;1.70;58.01
64402;BME280;50724;42.376;23.768;2024-01-30T09:46:26;94941.81;;;1.83;58.34
64402;BME280;50724;42.376;23.768;2024-01-30T09:49:34;94930.53;;;1.86;59.38
64402;BME280;50724;42.376;23.768;2024-01-30T09:52:35;94929.88;;;1.99;58.22
64402;BME280;50724;42.376;23.768;2024-01-30T09:55:36;94936.41;;;2.25;57.44
64402;BME280;50724;42.376;23.768;2024-01-30T09:58:37;94937.59;;;2.18;56.81
64402;BME280;50724;42.376;23.768;2024-01-30T10:01:40;94937.84;;;1.76;55.94
64402;BME280;50724;42.376;23.768;2024-01-30T10:04:40;94920.28;;;1.47;57.16
64402;BME280;50724;42.376;23.768;2024-01-30T10:07:52;94925.56;;;1.81;56.38
64402;BME280;50724;42.376;23.768;2024-01-30T10:10:52;94917.50;;;1.31;57.93
64402;BME280;50724;42.376;23.768;2024-01-30T10:13:53;94915.53;;;1.38;57.55
64402;BME280;50724;42.376;23.768;2024-01-30T10:16:55;94916.19;;;1.62;58.47
64402;BME280;50724;42.376;23.768;2024-01-30T10:19:56;94912.66;;;2.19;58.42
64402;BME280;50724;42.376;23.768;2024-01-30T10:22:56;94907.91;;;2.09;57.00
64402;BME280;50724;42.376;23.768;2024-01-30T10:25:57;94903.22;;;2.53;57.06
64402;BME280;50724;42.376;23.768;2024-01-30T10:28:57;94908.53;;;2.50;56.76
64402;BME280;50724;42.376;23.768;2024-01-30T10:32:02;94906.06;;;2.30;55.25
64402;BME280;50724;42.376;23.768;2024-01-30T10:35:03;94894.75;;;2.16;55.40
64402;BME280;50724;42.376;23.768;2024-01-30T10:38:05;94899.53;;;1.69;56.83
64402;BME280;50724;42.376;23.768;2024-01-30T10:41:08;94895.38;;;1.46;56.96
64402;BME280;50724;42.376;23.768;2024-01-30T10:44:17;94893.50;;;1.31;58.30
64402;BME280;50724;42.376;23.768;2024-01-30T10:47:26;94898.91;;;1.64;58.61
64402;BME280;50724;42.376;23.768;2024-01-30T10:50:28;94885.53;;;2.10;58.07
64402;BME280;50724;42.376;23.768;2024-01-30T10:53:30;94890.59;;;1.94;58.12
64402;BME280;50724;42.376;23.768;2024-01-30T10:56:32;94887.22;;;1.92;59.10
64402;BME280;50724;42.376;23.768;2024-01-30T10:59:33;94886.81;;;1.46;59.64
64402;BME280;50724;42.376;23.768;2024-01-30T11:02:34;94887.91;;;1.01;62.32
64402;BME280;50724;42.376;23.768;2024-01-30T11:05:35;94873.31;;;0.61;64.54
64402;BME280;50724;42.376;23.768;2024-01-30T11:08:35;94879.03;;;0.68;64.28
64402;BME280;50724;42.376;23.768;2024-01-30T11:11:52;94890.66;;;0.98;63.16
64402;BME280;50724;42.376;23.768;2024-01-30T11:15:12;94886.13;;;1.03;63.48
64402;BME280;50724;42.376;23.768;2024-01-30T11:18:23;94874.00;;;1.63;61.86
64402;BME280;50724;42.376;23.768;2024-01-30T11:21:32;94876.09;;;1.55;62.24
64402;BME280;50724;42.376;23.768;2024-01-30T11:24:39;94869.91;;;1.40;61.83
64402;BME280;50724;42.376;23.768;2024-01-30T11:27:42;94873.03;;;1.65;62.58
64402;BME280;50724;42.376;23.768;2024-01-30T11:30:43;94871.72;;;1.75;61.34
64402;BME280;50724;42.376;23.768;2024-01-30T11:33:44;94863.47;;;1.49;62.47
64402;BME280;50724;42.376;23.768;2024-01-30T11:36:45;94862.16;;;1.59;62.69
64402;BME280;50724;42.376;23.768;2024-01-30T11:39:49;94862.44;;;1.90;62.51
64402;BME280;50724;42.376;23.768;2024-01-30T11:42:50;94863.81;;;1.60;63.12
64402;BME280;50724;42.376;23.768;2024-01-30T11:45:51;94858.88;;;1.55;64.46
64402;BME280;50724;42.376;23.768;2024-01-30T11:48:52;94860.47;;;1.20;64.20
64402;BME280;50724;42.376;23.768;2024-01-30T11:51:53;94859.03;;;0.95;65.41
64402;BME280;50724;42.376;23.768;2024-01-30T11:54:54;94855.06;;;1.26;63.84
64402;BME280;50724;42.376;23.768;2024-01-30T11:57:58;94842.97;;;1.27;63.03
64402;BME280;50724;42.376;23.768;2024-01-30T12:00:59;94838.53;;;1.12;64.16
64402;BME280;50724;42.376;23.768;2024-01-30T12:04:00;94828.56;;;1.23;64.33
64402;BME280;50724;42.376;23.768;2024-01-30T12:07:00;94835.22;;;1.08;64.39
64402;BME280;50724;42.376;23.768;2024-01-30T12:10:01;94837.94;;;0.87;65.25
64402;BME280;50724;42.376;23.768;2024-01-30T12:13:02;94832.44;;;1.13;64.35
64402;BME280;50724;42.376;23.768;2024-01-30T12:16:03;94831.75;;;0.91;64.55
64402;BME280;50724;42.376;23.768;2024-01-30T12:19:03;94830.06;;;1.08;64.10
64402;BME280;50724;42.376;23.768;2024-01-30T12:22:04;94818.06;;;1.27;64.67
64402;BME280;50724;42.376;23.768;2024-01-30T12:25:08;94808.88;;;1.41;62.94
64402;BME280;50724;42.376;23.768;2024-01-30T12:28:10;94818.13;;;1.45;61.56
64402;BME280;50724;42.376;23.768;2024-01-30T12:31:11;94813.63;;;0.92;63.82
64402;BME280;50724;42.376;23.768;2024-01-30T12:34:14;94814.81;;;1.04;62.90
64402;BME280;50724;42.376;23.768;2024-01-30T12:37:17;94812.47;;;1.55;63.24
64402;BME280;50724;42.376;23.768;2024-01-30T12:40:22;94808.50;;;1.29;62.26
64402;BME280;50724;42.376;23.768;2024-01-30T12:43:25;94807.69;;;0.72;64.10
64402;BME280;50724;42.376;23.768;2024-01-30T12:46:28;94804.53;;;0.65;64.63
64402;BME280;50724;42.376;23.768;2024-01-30T12:49:29;94806.00;;;0.70;64.82
64402;BME280;50724;42.376;23.768;2024-01-30T12:52:29;94808.56;;;1.09;63.96
64402;BME280;50724;42.376;23.768;2024-01-30T12:55:30;94795.88;;;0.86;63.67
64402;BME280;50724;42.376;23.768;2024-01-30T12:58:30;94800.84;;;0.91;63.98
64402;BME280;50724;42.376;23.768;2024-01-30T13:01:31;94798.91;;;0.96;63.06
64402;BME280;50724;42.376;23.768;2024-01-30T13:04:31;94799.88;;;1.12;63.75
64402;BME280;50724;42.376;23.768;2024-01-30T13:07:32;94792.28;;;1.09;61.91
64402;BME280;50724;42.376;23.768;2024-01-30T13:10:32;94795.19;;;1.20;62.16
64402;BME280;50724;42.376;23.768;2024-01-30T13:13:33;94786.44;;;1.24;62.21
64402;BME280;50724;42.376;23.768;2024-01-30T13:16:33;94794.72;;;0.93;62.93
64402;BME280;50724;42.376;23.768;2024-01-30T13:19:34;94782.69;;;1.31;62.97
64402;BME280;50724;42.376;23.768;2024-01-30T13:22:34;94785.81;;;1.19;61.83
64402;BME280;50724;42.376;23.768;2024-01-30T13:25:35;94784.13;;;0.99;62.29
64402;BME280;50724;42.376;23.768;2024-01-30T13:28:35;94772.44;;;1.11;62.17
64402;BME280;50724;42.376;23.768;2024-01-30T13:31:36;94780.72;;;1.17;62.55
64402;BME280;50724;42.376;23.768;2024-01-30T13:34:36;94783.09;;;1.22;62.64
64402;BME280;50724;42.376;23.768;2024-01-30T13:37:36;94774.78;;;1.15;62.40
64402;BME280;50724;42.376;23.768;2024-01-30T13:40:37;94783.78;;;1.07;62.66
64402;BME280;50724;42.376;23.768;2024-01-30T13:43:37;94778.00;;;1.02;62.36
64402;BME280;50724;42.376;23.768;2024-01-30T13:46:38;94772.72;;;0.86;62.77
64402;BME280;50724;42.376;23.768;2024-01-30T13:49:39;94767.50;;;1.06;62.65
64402;BME280;50724;42.376;23.768;2024-01-30T13:52:39;94769.09;;;1.09;63.42
64402;BME280;50724;42.376;23.768;2024-01-30T13:55:48;94770.19;;;1.03;62.63
64402;BME280;50724;42.376;23.768;2024-01-30T13:58:49;94774.78;;;0.97;63.27
64402;BME280;50724;42.376;23.768;2024-01-30T14:01:51;94772.97;;;0.99;63.26
64402;BME280;50724;42.376;23.768;2024-01-30T14:04:51;94773.63;;;1.04;62.79
64402;BME280;50724;42.376;23.768;2024-01-30T14:07:52;94774.44;;;0.86;63.75
64402;BME280;50724;42.376;23.768;2024-01-30T14:10:53;94765.03;;;0.85;65.25
64402;BME280;50724;42.376;23.768;2024-01-30T14:13:53;94775.28;;;0.86;65.05
64402;BME280;50724;42.376;23.768;2024-01-30T14:16:54;94778.28;;;0.96;64.62
64402;BME280;50724;42.376;23.768;2024-01-30T14:20:04;94788.78;;;0.73;65.75
64402;BME280;50724;42.376;23.768;2024-01-30T14:23:05;94782.41;;;0.61;66.20
64402;BME280;50724;42.376;23.768;2024-01-30T14:26:05;94783.94;;;0.65;66.37
64402;BME280;50724;42.376;23.768;2024-01-30T14:29:06;94775.75;;;0.76;66.64
64402;BME280;50724;42.376;23.768;2024-01-30T14:32:06;94782.53;;;0.58;66.82
64402;BME280;50724;42.376;23.768;2024-01-30T14:35:07;94777.41;;;0.58;67.24
64402;BME280;50724;42.376;23.768;2024-01-30T14:38:09;94781.34;;;0.46;67.91
64402;BME280;50724;42.376;23.768;2024-01-30T14:41:10;94783.94;;;0.45;68.69
64402;BME280;50724;42.376;23.768;2024-01-30T14:44:10;94786.78;;;0.39;68.33
64402;BME280;50724;42.376;23.768;2024-01-30T14:47:11;94785.69;;;0.24;69.52
64402;BME280;50724;42.376;23.768;2024-01-30T14:50:13;94781.31;;;0.26;69.53
64402;BME280;50724;42.376;23.768;2024-01-30T14:53:15;94772.84;;;0.24;69.74
64402;BME280;50724;42.376;23.768;2024-01-30T14:56:16;94779.81;;;0.00;70.55
64402;BME280;50724;42.376;23.768;2024-01-30T14:59:17;94776.56;;;0.17;70.28
64402;BME280;50724;42.376;23.768;2024-01-30T15:02:18;94778.09;;;0.01;71.14
64402;BME280;50724;42.376;23.768;2024-01-30T15:05:18;94778.38;;;-0.27;71.98
64402;BME280;50724;42.376;23.768;2024-01-30T15:08:19;94779.88;;;-0.21;72.57
64402;BME280;50724;42.376;23.768;2024-01-30T15:11:20;94788.66;;;-0.48;73.29
64402;BME280;50724;42.376;23.768;2024-01-30T15:14:20;94793.78;;;-0.70;74.86
64402;BME280;50724;42.376;23.768;2024-01-30T15:17:21;94785.84;;;-0.86;75.97
64402;BME280;50724;42.376;23.768;2024-01-30T15:20:21;94787.06;;;-0.96;76.79
64402;BME280;50724;42.376;23.768;2024-01-30T15:23:22;94791.16;;;-1.13;77.74
64402;BME280;50724;42.376;23.768;2024-01-30T15:26:22;94793.28;;;-1.24;78.48
64402;BME280;50724;42.376;23.768;2024-01-30T15:29:23;94791.34;;;-1.43;79.89
64402;BME280;50724;42.376;23.768;2024-01-30T15:32:31;94802.53;;;-1.44;80.62
64402;BME280;50724;42.376;23.768;2024-01-30T15:35:32;94798.66;;;-1.55;81.30
64402;BME280;50724;42.376;23.768;2024-01-30T15:38:32;94796.97;;;-1.56;81.40
64402;BME280;50724;42.376;23.768;2024-01-30T15:41:33;94803.31;;;-1.66;82.04
64402;BME280;50724;42.376;23.768;2024-01-30T15:44:33;94799.09;;;-1.67;82.28
64402;BME280;50724;42.376;23.768;2024-01-30T15:47:34;94814.94;;;-1.81;83.19